Time;durP1;ratioP1;P1;durP2;ratioP2;P2;SDS_P1;SDS_P2;PMS_P1;PMS_P2;Temp;Humidity;BMP_temperature;BMP_pressure;BME280_temperature;BME280_humidity;BME280_pressure;Samples;Min_cycle;Max_cycle;Signal;HPM_P1;HPM_P2
2021/08/05 00:01:41;;;;;;;30.90;27.83;;;;;;;;;;5016472;28;20410;-77
2021/08/05 00:04:07;;;;;;;33.73;30.47;;;;;;;;;;5015994;28;20421;-78
2021/08/05 00:06:34;;;;;;;32.77;29.60;;;;;;;;;;5016325;28;20452;-77
2021/08/05 00:09:00;;;;;;;31.03;27.97;;;;;;;;;;5016288;28;20472;-77
2021/08/05 00:11:26;;;;;;;30.13;27.20;;;;;;;;;;5016196;28;20410;-77
2021/08/05 00:13:52;;;;;;;31.60;27.90;;;;;;;;;;5016042;28;20392;-77
2021/08/05 00:16:18;;;;;;;32.70;29.60;;;;;;;;;;5016060;28;20778;-77
2021/08/05 00:18:44;;;;;;;37.10;33.10;;;;;;;;;;5016079;28;20521;-77
2021/08/05 00:21:10;;;;;;;36.07;32.33;;;;;;;;;;5016090;28;20436;-77
2021/08/05 00:23:36;;;;;;;33.40;30.03;;;;;;;;;;5015751;28;20421;-77
2021/08/05 00:26:02;;;;;;;37.57;33.67;;;;;;;;;;5015961;28;20443;-77
2021/08/05 00:28:28;;;;;;;37.23;33.50;;;;;;;;;;5015837;28;21195;-77
2021/08/05 00:30:54;;;;;;;39.53;35.60;;;;;;;;;;5016284;28;20480;-77
2021/08/05 00:33:20;;;;;;;38.37;34.37;;;;;;;;;;5015612;28;20421;-77
2021/08/05 00:35:47;;;;;;;38.90;35.00;;;;;;;;;;5015652;28;20512;-77
2021/08/05 00:38:13;;;;;;;36.43;32.70;;;;;;;;;;5015075;28;20769;-78
2021/08/05 00:40:39;;;;;;;35.37;31.77;;;;;;;;;;5015693;28;20410;-77
2021/08/05 00:43:05;;;;;;;32.80;29.20;;;;;;;;;;5015800;28;20413;-77
2021/08/05 00:45:31;;;;;;;37.10;33.50;;;;;;;;;;5015578;28;20793;-77
2021/08/05 00:47:57;;;;;;;38.00;34.10;;;;;;;;;;5015679;28;20414;-77
2021/08/05 00:50:23;;;;;;;34.73;31.13;;;;;;;;;;5015605;28;20430;-77
2021/08/05 00:52:49;;;;;;;38.57;34.27;;;;;;;;;;4997568;28;20425;-79
2021/08/05 00:55:15;;;;;;;35.30;31.80;;;;;;;;;;5015502;28;20441;-77
2021/08/05 00:57:41;;;;;;;34.53;31.00;;;;;;;;;;4997882;28;20432;-77
2021/08/05 01:00:08;;;;;;;33.93;30.23;;;;;;;;;;5015388;28;20406;-77
2021/08/05 01:02:38;;;;;;;33.57;30.10;;;;;;;;;;5015168;28;20417;-77
2021/08/05 01:05:05;;;;;;;34.50;31.10;;;;;;;;;;5015091;28;20508;-77
2021/08/05 01:07:31;;;;;;;33.50;30.17;;;;;;;;;;4998119;28;20417;-77
2021/08/05 01:10:06;;;;;;;32.80;29.53;;;;;;;;;;5015142;28;20524;-77
2021/08/05 01:12:43;;;;;;;35.27;31.07;;;;;;;;;;5015090;28;20410;-77
2021/08/05 01:15:13;;;;;;;34.77;31.00;;;;;;;;;;5015013;28;20495;-76
2021/08/05 01:17:41;;;;;;;36.97;33.27;;;;;;;;;;5015136;28;20386;-77
2021/08/05 01:20:08;;;;;;;39.93;32.63;;;;;;;;;;5015116;28;20406;-77
2021/08/05 01:22:40;;;;;;;33.00;29.63;;;;;;;;;;5014903;28;20741;-77
2021/08/05 01:25:08;;;;;;;31.80;28.60;;;;;;;;;;5014598;28;20859;-77
2021/08/05 01:27:34;;;;;;;30.30;27.20;;;;;;;;;;5014835;28;20418;-77
2021/08/05 01:30:00;;;;;;;31.63;28.67;;;;;;;;;;5014879;28;20793;-76
2021/08/05 01:32:27;;;;;;;36.77;33.17;;;;;;;;;;5014926;28;20409;-76
2021/08/05 01:34:54;;;;;;;34.20;30.80;;;;;;;;;;5014218;28;20450;-79
2021/08/05 01:37:20;;;;;;;34.10;30.57;;;;;;;;;;5014723;28;20445;-78
2021/08/05 01:39:46;;;;;;;31.93;28.83;;;;;;;;;;5014714;28;20414;-76
2021/08/05 01:42:13;;;;;;;33.17;29.60;;;;;;;;;;5014588;28;20910;-76
2021/08/05 01:44:42;;;;;;;35.50;31.80;;;;;;;;;;5014164;28;20419;-78
2021/08/05 01:47:08;;;;;;;35.90;32.30;;;;;;;;;;5014362;28;20396;-76
2021/08/05 01:49:35;;;;;;;33.90;30.53;;;;;;;;;;5014270;28;20453;-76
2021/08/05 01:52:02;;;;;;;32.63;29.43;;;;;;;;;;5014402;28;20410;-76
2021/08/05 01:54:28;;;;;;;31.13;27.97;;;;;;;;;;5013998;28;20827;-76
2021/08/05 01:56:54;;;;;;;36.10;32.20;;;;;;;;;;5014403;28;20876;-77
2021/08/05 01:59:20;;;;;;;33.47;29.93;;;;;;;;;;5014142;28;20422;-76
2021/08/05 02:01:46;;;;;;;31.77;28.33;;;;;;;;;;5014336;28;20428;-78
2021/08/05 02:04:16;;;;;;;33.07;29.57;;;;;;;;;;5013862;28;20389;-78
2021/08/05 02:06:51;;;;;;;31.50;28.20;;;;;;;;;;5014367;28;20763;-78
2021/08/05 02:09:21;;;;;;;29.43;26.57;;;;;;;;;;5013963;28;20856;-78
2021/08/05 02:11:49;;;;;;;30.53;27.40;;;;;;;;;;5014238;28;20826;-77
2021/08/05 02:14:16;;;;;;;31.90;28.40;;;;;;;;;;5013892;28;20472;-78
2021/08/05 02:16:44;;;;;;;32.50;29.20;;;;;;;;;;5014264;28;20396;-78
2021/08/05 02:19:11;;;;;;;34.00;30.53;;;;;;;;;;5013938;28;20384;-78
2021/08/05 02:21:37;;;;;;;42.97;30.17;;;;;;;;;;5013914;28;20817;-78
2021/08/05 02:24:04;;;;;;;31.40;28.30;;;;;;;;;;5013643;28;20410;-78
2021/08/05 02:26:30;;;;;;;32.50;29.27;;;;;;;;;;5013830;28;20438;-77
2021/08/05 02:28:56;;;;;;;31.90;28.60;;;;;;;;;;5013793;28;20461;-79
2021/08/05 02:31:23;;;;;;;33.20;30.10;;;;;;;;;;4995940;28;20414;-78
2021/08/05 02:33:50;;;;;;;34.40;30.90;;;;;;;;;;5013641;28;20414;-78
2021/08/05 02:36:16;;;;;;;33.83;30.40;;;;;;;;;;5013483;28;20457;-79
2021/08/05 02:38:42;;;;;;;32.23;28.93;;;;;;;;;;5013824;28;20417;-78
2021/08/05 02:41:09;;;;;;;32.23;29.13;;;;;;;;;;5013555;28;20422;-78
2021/08/05 02:43:35;;;;;;;31.10;28.00;;;;;;;;;;5013073;28;20418;-78
2021/08/05 02:46:02;;;;;;;31.53;28.40;;;;;;;;;;5013692;28;20437;-77
2021/08/05 02:48:29;;;;;;;32.17;28.90;;;;;;;;;;5013575;28;21291;-78
2021/08/05 02:50:57;;;;;;;32.67;29.37;;;;;;;;;;5013792;28;20504;-77
2021/08/05 02:53:23;;;;;;;30.43;27.30;;;;;;;;;;5013170;28;20488;-79
2021/08/05 02:55:50;;;;;;;32.27;28.90;;;;;;;;;;5013461;28;20836;-78
2021/08/05 02:58:16;;;;;;;29.07;26.07;;;;;;;;;;5013420;28;20414;-78
2021/08/05 03:00:43;;;;;;;28.50;25.60;;;;;;;;;;5013337;28;20422;-78
2021/08/05 03:03:09;;;;;;;28.40;25.50;;;;;;;;;;5012652;28;20414;-78
2021/08/05 03:05:36;;;;;;;29.87;26.77;;;;;;;;;;5013258;28;20483;-77
2021/08/05 03:08:01;;;;;;;27.23;24.60;;;;;;;;;;5013378;28;20417;-78
2021/08/05 03:10:27;;;;;;;26.40;23.90;;;;;;;;;;5013268;28;20478;-78
2021/08/05 03:12:53;;;;;;;28.70;25.83;;;;;;;;;;5012953;28;20418;-77
2021/08/05 03:15:19;;;;;;;28.90;25.50;;;;;;;;;;5013221;28;20434;-77
2021/08/05 03:17:45;;;;;;;26.27;23.77;;;;;;;;;;5013245;28;20903;-78
2021/08/05 03:20:21;;;;;;;26.53;23.67;;;;;;;;;;5013235;28;20457;-78
2021/08/05 03:22:47;;;;;;;27.43;22.33;;;;;;;;;;5013020;28;20401;-78
2021/08/05 03:25:13;;;;;;;24.20;21.80;;;;;;;;;;4995479;28;20948;-76
2021/08/05 03:27:39;;;;;;;26.57;23.87;;;;;;;;;;5013421;28;20418;-76
2021/08/05 03:30:06;;;;;;;25.17;22.77;;;;;;;;;;5013379;28;20465;-76
2021/08/05 03:32:32;;;;;;;27.33;24.10;;;;;;;;;;5013081;28;20426;-76
2021/08/05 03:34:58;;;;;;;25.50;23.00;;;;;;;;;;5012729;28;20485;-76
2021/08/05 03:37:25;;;;;;;27.20;24.47;;;;;;;;;;5013266;28;20410;-76
2021/08/05 03:39:51;;;;;;;26.87;21.87;;;;;;;;;;5013206;28;20421;-76
2021/08/05 03:42:17;;;;;;;26.40;23.90;;;;;;;;;;5012996;28;21016;-76
2021/08/05 03:44:42;;;;;;;26.83;24.20;;;;;;;;;;5012821;28;20449;-76
2021/08/05 03:47:08;;;;;;;29.70;26.60;;;;;;;;;;5013033;28;20463;-76
2021/08/05 03:49:34;;;;;;;27.83;25.10;;;;;;;;;;5012917;28;20465;-76
2021/08/05 03:52:00;;;;;;;26.73;23.93;;;;;;;;;;5012875;28;20417;-76
2021/08/05 03:54:26;;;;;;;25.63;23.10;;;;;;;;;;5012703;28;20425;-76
2021/08/05 03:56:52;;;;;;;26.10;23.57;;;;;;;;;;5013059;28;20409;-76
2021/08/05 03:59:18;;;;;;;28.30;25.30;;;;;;;;;;5012855;28;20406;-76
2021/08/05 04:01:44;;;;;;;29.40;26.43;;;;;;;;;;5012851;28;20823;-76
2021/08/05 04:04:10;;;;;;;28.40;25.73;;;;;;;;;;5012343;28;20393;-77
2021/08/05 04:06:36;;;;;;;31.23;26.47;;;;;;;;;;5012784;28;20413;-76
2021/08/05 04:09:03;;;;;;;27.83;25.00;;;;;;;;;;5012661;28;20489;-76
2021/08/05 04:11:29;;;;;;;28.20;25.30;;;;;;;;;;4994957;28;20449;-76
2021/08/05 04:13:55;;;;;;;27.87;25.27;;;;;;;;;;5013345;28;20452;-76
2021/08/05 04:16:21;;;;;;;28.60;25.57;;;;;;;;;;5016028;28;20455;-76
2021/08/05 04:18:47;;;;;;;27.60;24.90;;;;;;;;;;5016399;28;20421;-76
2021/08/05 04:21:13;;;;;;;26.90;24.40;;;;;;;;;;5016190;28;20460;-77
2021/08/05 04:23:39;;;;;;;27.43;24.63;;;;;;;;;;5015849;28;20414;-76
2021/08/05 04:26:07;;;;;;;28.67;25.77;;;;;;;;;;5015965;28;20442;-76
2021/08/05 04:28:33;;;;;;;32.67;29.40;;;;;;;;;;5015881;28;20465;-76
2021/08/05 04:30:59;;;;;;;31.13;27.93;;;;;;;;;;5016277;28;20410;-76
2021/08/05 04:33:25;;;;;;;29.17;26.20;;;;;;;;;;5015816;28;20405;-76
2021/08/05 04:35:51;;;;;;;28.53;25.63;;;;;;;;;;5015687;28;20540;-76
2021/08/05 04:38:17;;;;;;;30.00;26.90;;;;;;;;;;5015748;28;20413;-76
2021/08/05 04:40:43;;;;;;;24.97;22.33;;;;;;;;;;5015819;28;20406;-76
2021/08/05 04:43:09;;;;;;;27.30;24.73;;;;;;;;;;5015555;28;20902;-76
2021/08/05 04:45:35;;;;;;;27.23;24.67;;;;;;;;;;4998839;28;20934;-76
2021/08/05 04:48:05;;;;;;;31.30;25.10;;;;;;;;;;4998446;28;20496;-76
2021/08/05 04:50:35;;;;;;;28.73;25.87;;;;;;;;;;5015672;28;20468;-77
2021/08/05 04:53:01;;;;;;;29.97;26.77;;;;;;;;;;5015358;28;20410;-76
2021/08/05 04:55:30;;;;;;;29.20;26.30;;;;;;;;;;5015456;28;20776;-76
2021/08/05 04:58:06;;;;;;;28.73;25.67;;;;;;;;;;5015366;28;20437;-76
2021/08/05 05:00:35;;;;;;;27.67;24.87;;;;;;;;;;5015525;28;20415;-76
2021/08/05 05:03:01;;;;;;;27.27;24.57;;;;;;;;;;5015244;28;20410;-76
2021/08/05 05:05:28;;;;;;;26.00;23.50;;;;;;;;;;5015172;28;20508;-76
2021/08/05 05:07:54;;;;;;;26.27;23.77;;;;;;;;;;5015144;28;20457;-76
2021/08/05 05:10:21;;;;;;;26.63;23.70;;;;;;;;;;5015168;28;20561;-78
2021/08/05 05:12:47;;;;;;;27.37;24.57;;;;;;;;;;5014844;28;20410;-76
2021/08/05 05:15:14;;;;;;;26.37;23.87;;;;;;;;;;4997695;28;20958;-76
2021/08/05 05:17:41;;;;;;;28.10;25.23;;;;;;;;;;5015074;28;20413;-76
2021/08/05 05:20:07;;;;;;;25.97;23.23;;;;;;;;;;5015104;28;20505;-76
2021/08/05 05:22:33;;;;;;;26.97;24.17;;;;;;;;;;5014821;28;20414;-76
2021/08/05 05:25:00;;;;;;;27.20;24.33;;;;;;;;;;5014165;28;20430;-76
2021/08/05 05:27:26;;;;;;;26.33;23.50;;;;;;;;;;5014848;28;20416;-75
2021/08/05 05:29:55;;;;;;;27.03;24.33;;;;;;;;;;5014712;28;20465;-78
2021/08/05 05:32:22;;;;;;;27.13;24.33;;;;;;;;;;5014185;28;20391;-78
2021/08/05 05:34:48;;;;;;;25.70;23.30;;;;;;;;;;5014372;28;20453;-75
2021/08/05 05:37:14;;;;;;;25.80;23.17;;;;;;;;;;5013514;28;20485;-75
2021/08/05 05:39:40;;;;;;;28.30;25.20;;;;;;;;;;5014771;28;20426;-75
2021/08/05 05:42:06;;;;;;;25.40;22.90;;;;;;;;;;5014523;28;20420;-75
2021/08/05 05:44:32;;;;;;;26.47;23.87;;;;;;;;;;5014046;28;20763;-75
2021/08/05 05:46:58;;;;;;;24.87;22.67;;;;;;;;;;5014232;28;20429;-76
2021/08/05 05:49:24;;;;;;;24.27;21.87;;;;;;;;;;5014444;28;20855;-76
2021/08/05 05:51:50;;;;;;;24.67;22.30;;;;;;;;;;5014619;28;20444;-76
2021/08/05 05:54:16;;;;;;;23.00;20.93;;;;;;;;;;5013929;28;20483;-76
2021/08/05 05:56:42;;;;;;;23.03;21.03;;;;;;;;;;5014338;28;20391;-75
2021/08/05 05:59:08;;;;;;;23.20;21.00;;;;;;;;;;5014081;28;20430;-77
2021/08/05 06:01:35;;;;;;;20.27;18.47;;;;;;;;;;5014216;28;20493;-77
2021/08/05 06:04:01;;;;;;;20.33;18.43;;;;;;;;;;5013785;28;20553;-78
2021/08/05 06:06:27;;;;;;;18.60;17.00;;;;;;;;;;5013931;28;20420;-77
2021/08/05 06:08:53;;;;;;;18.57;16.77;;;;;;;;;;5012758;28;20461;-78
2021/08/05 06:11:19;;;;;;;19.10;17.30;;;;;;;;;;5012818;28;20406;-78
2021/08/05 06:13:45;;;;;;;18.60;16.70;;;;;;;;;;5013818;28;20406;-77
2021/08/05 06:16:11;;;;;;;17.23;15.53;;;;;;;;;;5014062;28;20441;-77
2021/08/05 06:18:37;;;;;;;18.50;16.67;;;;;;;;;;5012673;28;20993;-78
2021/08/05 06:21:03;;;;;;;16.43;15.13;;;;;;;;;;5012605;28;20516;-77
2021/08/05 06:23:30;;;;;;;18.43;16.80;;;;;;;;;;5013506;28;20399;-77
2021/08/05 06:25:56;;;;;;;18.57;16.07;;;;;;;;;;5013968;28;20430;-77
2021/08/05 06:28:22;;;;;;;17.90;16.40;;;;;;;;;;5012570;28;20404;-78
2021/08/05 06:30:48;;;;;;;18.47;16.77;;;;;;;;;;5014047;28;20448;-78
2021/08/05 06:33:14;;;;;;;17.87;16.27;;;;;;;;;;5013583;28;20449;-78
2021/08/05 06:35:40;;;;;;;17.00;15.30;;;;;;;;;;5013442;28;20488;-78
2021/08/05 06:38:06;;;;;;;17.30;15.63;;;;;;;;;;5012922;28;20414;-78
2021/08/05 06:40:32;;;;;;;17.50;15.60;;;;;;;;;;5012386;28;20520;-78
2021/08/05 06:42:58;;;;;;;17.67;15.87;;;;;;;;;;5013292;28;20418;-77
2021/08/05 06:45:24;;;;;;;15.70;14.40;;;;;;;;;;5013441;28;20475;-78
2021/08/05 06:47:50;;;;;;;16.43;15.00;;;;;;;;;;5013667;28;20425;-78
2021/08/05 06:50:17;;;;;;;15.93;14.33;;;;;;;;;;5013722;28;20561;-78
2021/08/05 06:52:43;;;;;;;17.03;15.23;;;;;;;;;;5013585;28;20876;-82
2021/08/05 06:55:09;;;;;;;14.90;13.60;;;;;;;;;;5013374;28;20525;-79
2021/08/05 06:57:35;;;;;;;15.27;13.87;;;;;;;;;;5013566;28;20437;-78
2021/08/05 07:00:02;;;;;;;14.60;13.30;;;;;;;;;;5012413;28;20816;-78
2021/08/05 07:02:28;;;;;;;14.37;13.17;;;;;;;;;;5013418;28;20447;-78
2021/08/05 07:04:54;;;;;;;15.90;14.50;;;;;;;;;;5013107;28;20462;-78
2021/08/05 07:07:20;;;;;;;14.70;13.40;;;;;;;;;;5013313;28;20942;-78
2021/08/05 07:09:46;;;;;;;16.60;15.13;;;;;;;;;;5013309;28;20874;-78
2021/08/05 07:12:12;;;;;;;16.80;15.40;;;;;;;;;;5013277;28;20410;-79
2021/08/05 07:14:39;;;;;;;17.03;15.53;;;;;;;;;;5011645;28;20416;-80
2021/08/05 07:17:05;;;;;;;16.77;15.23;;;;;;;;;;5013363;28;20369;-80
2021/08/05 07:19:31;;;;;;;18.20;16.40;;;;;;;;;;5013130;28;20389;-79
2021/08/05 07:21:57;;;;;;;17.83;15.93;;;;;;;;;;5013224;28;20445;-79
2021/08/05 07:24:23;;;;;;;17.30;15.70;;;;;;;;;;5011692;28;20837;-79
2021/08/05 07:26:49;;;;;;;17.20;15.70;;;;;;;;;;5013331;28;20424;-79
2021/08/05 07:29:15;;;;;;;17.60;15.90;;;;;;;;;;5013043;28;20438;-79
2021/08/05 07:31:44;;;;;;;17.27;15.50;;;;;;;;;;5012935;28;20418;-79
2021/08/05 07:34:10;;;;;;;18.37;16.53;;;;;;;;;;5012693;28;20903;-79
2021/08/05 07:36:36;;;;;;;15.13;13.80;;;;;;;;;;5012912;28;20431;-79
2021/08/05 07:39:02;;;;;;;17.40;15.70;;;;;;;;;;5013023;28;20806;-79
2021/08/05 07:41:28;;;;;;;17.33;15.77;;;;;;;;;;5012973;28;20391;-80
2021/08/05 07:43:54;;;;;;;16.10;14.60;;;;;;;;;;5012649;28;20504;-79
2021/08/05 07:46:20;;;;;;;15.40;13.97;;;;;;;;;;5013100;28;20447;-79
2021/08/05 07:48:46;;;;;;;16.37;14.80;;;;;;;;;;5015232;28;20435;-78
2021/08/05 07:51:12;;;;;;;16.00;14.50;;;;;;;;;;5016671;28;20825;-79
2021/08/05 07:53:38;;;;;;;17.47;15.77;;;;;;;;;;5016372;28;20417;-79
2021/08/05 07:56:04;;;;;;;16.23;14.73;;;;;;;;;;5016487;28;20432;-79
2021/08/05 07:58:30;;;;;;;18.17;16.37;;;;;;;;;;5016463;28;20500;-79
2021/08/05 08:00:56;;;;;;;16.30;14.80;;;;;;;;;;5016508;28;20438;-79
2021/08/05 08:03:22;;;;;;;18.40;15.63;;;;;;;;;;5016289;28;20907;-79
2021/08/05 08:05:48;;;;;;;15.33;13.83;;;;;;;;;;5016285;28;20479;-78
2021/08/05 08:08:16;;;;;;;15.13;13.83;;;;;;;;;;5016227;28;20895;-80
2021/08/05 08:10:42;;;;;;;16.13;14.53;;;;;;;;;;5016367;28;20437;-78
2021/08/05 08:13:08;;;;;;;15.10;13.70;;;;;;;;;;5015914;28;20403;-79
2021/08/05 08:15:34;;;;;;;14.70;13.27;;;;;;;;;;5016298;28;20457;-79
2021/08/05 08:18:00;;;;;;;14.70;13.40;;;;;;;;;;5016046;28;20404;-78
2021/08/05 08:20:26;;;;;;;15.60;14.30;;;;;;;;;;5016139;28;20747;-78
2021/08/05 08:22:52;;;;;;;13.30;12.10;;;;;;;;;;5015797;28;20396;-79
2021/08/05 08:25:18;;;;;;;12.77;11.50;;;;;;;;;;5016080;28;20427;-79
2021/08/05 08:27:44;;;;;;;12.70;11.60;;;;;;;;;;5016397;28;20376;-79
2021/08/05 08:30:11;;;;;;;12.20;11.10;;;;;;;;;;5014526;28;20797;-79
2021/08/05 08:32:37;;;;;;;15.27;11.50;;;;;;;;;;5015849;28;20460;-78
2021/08/05 08:35:04;;;;;;;11.17;10.17;;;;;;;;;;5015593;28;20476;-79
2021/08/05 08:37:30;;;;;;;12.30;11.20;;;;;;;;;;5015913;28;20442;-78
2021/08/05 08:39:56;;;;;;;11.40;10.30;;;;;;;;;;5015908;28;20388;-78
2021/08/05 08:42:22;;;;;;;11.40;10.40;;;;;;;;;;5015689;28;20420;-78
2021/08/05 08:44:48;;;;;;;11.83;10.63;;;;;;;;;;5015249;28;20452;-78
2021/08/05 08:47:15;;;;;;;11.77;10.67;;;;;;;;;;5015674;28;20442;-79
2021/08/05 08:49:48;;;;;;;11.97;10.87;;;;;;;;;;5015592;28;20436;-79
2021/08/05 08:52:15;;;;;;;11.90;10.90;;;;;;;;;;5015697;28;20469;-79
2021/08/05 08:54:44;;;;;;;10.23;9.30;;;;;;;;;;5015037;28;20447;-79
2021/08/05 08:57:11;;;;;;;10.90;9.90;;;;;;;;;;5015568;28;20763;-79
2021/08/05 08:59:37;;;;;;;10.60;9.67;;;;;;;;;;5014540;28;20509;-81
2021/08/05 09:02:03;;;;;;;10.97;9.67;;;;;;;;;;5015410;28;20417;-81
2021/08/05 09:04:55;;;;;;;9.10;7.90;;;;;;;;;;5021442;23;20856;-81
2021/08/05 09:11:00;;;;;;;8.80;7.87;;;;;;;;;;5014248;28;21038;-81
2021/08/05 09:13:43;;;;;;;9.83;8.93;;;;;;;;;;5011207;28;20418;-81
2021/08/05 09:19:51;;;;;;;7.83;7.03;;;;;;;;;;4999074;28;20459;-81
2021/08/05 09:25:42;;;;;;;;;;;;;;;;;;;;;
2021/08/05 09:28:27;;;;;;;7.57;6.60;;;;;;;;;;4973379;28;20456;-82
2021/08/05 09:37:29;;;;;;;5.90;5.10;;;;;;;;;;4927742;29;20434;-81
2021/08/05 09:40:35;;;;;;;;;;;;;;;;;;;;;
2021/08/05 09:46:37;;;;;;;5.17;4.70;;;;;;;;;;5014425;28;20476;-81
2021/08/05 09:49:21;;;;;;;4.50;4.10;;;;;;;;;;5014420;28;20461;-82
2021/08/05 10:01:16;;;;;;;3.33;3.10;;;;;;;;;;4991460;28;20431;-81
2021/08/05 10:04:24;;;;;;;;;;;;;;;;;;;;;
2021/08/05 10:07:36;;;;;;;;;;;;;;;;;;;;;
2021/08/05 10:10:26;;;;;;;2.50;2.30;;;;;;;;;;4896489;29;20474;-79
2021/08/05 10:13:13;;;;;;;3.00;2.10;;;;;;;;;;4896571;29;20426;-79
2021/08/05 10:16:15;;;;;;;2.57;2.10;;;;;;;;;;4964204;28;20428;-81
2021/08/05 10:22:18;;;;;;;2.80;1.80;;;;;;;;;;4896317;29;20422;-79
2021/08/05 10:31:22;;;;;;;2.13;2.03;;;;;;;;;;4915089;29;20446;-80
2021/08/05 10:39:49;;;;;;;3.07;2.13;;;;;;;;;;4992369;28;20475;-80
2021/08/05 10:43:13;;;;;;;5.03;2.70;;;;;;;;;;4976523;28;20501;-80
2021/08/05 10:45:49;;;;;;;2.60;2.40;;;;;;;;;;5028866;22;20481;-80
2021/08/05 10:48:43;;;;;;;2.03;1.87;;;;;;;;;;5013469;28;20444;-80
2021/08/05 11:07:38;;;;;;;3.17;2.27;;;;;;;;;;4820789;29;20417;-79
2021/08/05 11:13:45;;;;;;;;;;;;;;;;;;;;;
2021/08/05 11:22:56;;;;;;;4.67;2.20;;;;;;;;;;5013158;28;20452;-78
2021/08/05 11:38:24;;;;;;;;;;;;;;;;;;;;;
2021/08/05 11:46:36;;;;;;;3.73;3.10;;;;;;;;;;5033270;23;20623;-79
2021/08/05 11:55:40;;;;;;;6.27;2.97;;;;;;;;;;4936899;29;20455;-80
2021/08/05 12:01:40;;;;;;;2.70;2.17;;;;;;;;;;4936448;29;20492;-80
2021/08/05 12:08:04;;;;;;;1.77;1.60;;;;;;;;;;4922134;29;20440;-80
2021/08/05 12:11:18;;;;;;;;;;;;;;;;;;;;;
2021/08/05 12:14:17;;;;;;;;;;;;;;;;;;;;;
2021/08/05 12:17:42;;;;;;;2.33;2.13;;;;;;;;;;5016545;28;20390;-80
2021/08/05 12:29:25;;;;;;;2.70;2.07;;;;;;;;;;4994882;28;20907;-79
2021/08/05 12:32:14;;;;;;;3.13;2.50;;;;;;;;;;4916402;29;20894;-79
2021/08/05 12:34:46;;;;;;;5.37;1.50;;;;;;;;;;4917754;28;20459;-78
2021/08/05 12:37:13;;;;;;;1.70;1.60;;;;;;;;;;4977182;28;20439;-79
2021/08/05 12:39:45;;;;;;;2.00;1.60;;;;;;;;;;4959338;28;20839;-79
2021/08/05 12:42:30;;;;;;;1.30;1.20;;;;;;;;;;4976504;28;20443;-79
2021/08/05 12:45:43;;;;;;;1.30;1.20;;;;;;;;;;4975803;28;20817;-80
2021/08/05 13:00:05;;;;;;;3.70;1.90;;;;;;;;;;4931839;29;20438;-80
2021/08/05 13:03:06;;;;;;;1.50;1.40;;;;;;;;;;5012865;28;20441;-80
2021/08/05 13:12:13;;;;;;;;;;;;;;;;;;;;;
2021/08/05 13:15:03;;;;;;;2.33;1.90;;;;;;;;;;5031654;28;20437;-79
2021/08/05 13:18:40;;;;;;;1.77;1.67;;;;;;;;;;5032185;28;20420;-78
2021/08/05 13:24:43;;;;;;;5.03;1.80;;;;;;;;;;5029943;28;20424;-77
2021/08/05 13:27:47;;;;;;;;;;;;;;;;;;;;;
2021/08/05 13:30:45;;;;;;;2.47;2.07;;;;;;;;;;4947061;28;20479;-77
2021/08/05 13:33:17;;;;;;;1.97;1.87;;;;;;;;;;5026896;28;20796;-78
2021/08/05 13:36:10;;;;;;;2.57;1.80;;;;;;;;;;5032892;28;20445;-77
2021/08/05 13:39:13;;;;;;;;;;;;;;;;;;;;;
2021/08/05 13:41:58;;;;;;;;;;;;;;;;;;;;;
2021/08/05 13:44:24;;;;;;;1.63;1.53;;;;;;;;;;5031724;28;20783;-78
2021/08/05 13:46:50;;;;;;;2.40;1.60;;;;;;;;;;5031064;28;20925;-77
2021/08/05 13:49:18;;;;;;;1.33;1.23;;;;;;;;;;5031991;28;20496;-77
2021/08/05 13:51:44;;;;;;;2.07;1.80;;;;;;;;;;5031781;28;20449;-77
2021/08/05 13:54:10;;;;;;;1.40;1.30;;;;;;;;;;5012947;28;20448;-77
2021/08/05 13:56:36;;;;;;;1.57;1.47;;;;;;;;;;5032002;28;20417;-78
2021/08/05 13:59:02;;;;;;;1.50;1.40;;;;;;;;;;5031831;28;20845;-76
2021/08/05 14:01:29;;;;;;;1.50;1.27;;;;;;;;;;5013806;28;20539;-77
2021/08/05 14:03:55;;;;;;;1.37;1.27;;;;;;;;;;5033936;28;20412;-77
2021/08/05 14:06:21;;;;;;;1.37;1.27;;;;;;;;;;5015417;28;21032;-77
2021/08/05 14:08:47;;;;;;;1.50;1.40;;;;;;;;;;5032949;28;20475;-77
2021/08/05 14:11:13;;;;;;;2.07;1.87;;;;;;;;;;5016196;28;20424;-77
2021/08/05 14:13:39;;;;;;;1.50;1.40;;;;;;;;;;5015883;28;20460;-77
2021/08/05 14:16:05;;;;;;;1.60;1.50;;;;;;;;;;5032680;28;20879;-76
2021/08/05 14:18:31;;;;;;;1.90;1.70;;;;;;;;;;5033345;28;20500;-76
2021/08/05 14:20:57;;;;;;;1.60;1.50;;;;;;;;;;5033683;28;20511;-76
2021/08/05 14:23:23;;;;;;;1.57;1.47;;;;;;;;;;5033071;28;20417;-78
2021/08/05 14:25:49;;;;;;;1.67;1.53;;;;;;;;;;5015973;28;20571;-76
2021/08/05 14:28:17;;;;;;;1.50;1.40;;;;;;;;;;5031985;28;20432;-78
2021/08/05 14:30:43;;;;;;;1.90;1.80;;;;;;;;;;5030540;28;20481;-78
2021/08/05 14:33:09;;;;;;;1.87;1.60;;;;;;;;;;5032959;28;20759;-76
2021/08/05 14:35:42;;;;;;;1.50;1.40;;;;;;;;;;5042884;23;20492;-77
2021/08/05 14:38:25;;;;;;;2.53;2.20;;;;;;;;;;4995116;28;20418;-77
2021/08/05 14:43:45;;;;;;;1.93;1.73;;;;;;;;;;4983393;28;20434;-76
2021/08/05 14:46:11;;;;;;;4.50;1.90;;;;;;;;;;5022782;23;20488;-76
2021/08/05 14:48:37;;;;;;;1.87;1.73;;;;;;;;;;5033358;28;20921;-77
2021/08/05 14:51:03;;;;;;;2.33;2.13;;;;;;;;;;5015871;28;20433;-77
2021/08/05 14:53:30;;;;;;;1.90;1.60;;;;;;;;;;5014683;28;20469;-75
2021/08/05 14:55:56;;;;;;;1.93;1.83;;;;;;;;;;5033114;28;20452;-75
2021/08/05 14:58:22;;;;;;;1.63;1.53;;;;;;;;;;5032493;28;20445;-77
2021/08/05 15:00:48;;;;;;;1.87;1.70;;;;;;;;;;5032436;28;20460;-78
2021/08/05 15:03:16;;;;;;;6.47;1.80;;;;;;;;;;5032957;28;20916;-77
2021/08/05 15:05:42;;;;;;;1.70;1.60;;;;;;;;;;5015421;28;20437;-76
2021/08/05 15:08:08;;;;;;;2.07;1.63;;;;;;;;;;5032309;28;20499;-77
2021/08/05 15:10:34;;;;;;;2.70;1.83;;;;;;;;;;5032405;28;20559;-77
2021/08/05 15:13:00;;;;;;;1.57;1.47;;;;;;;;;;5032728;28;20409;-77
2021/08/05 15:15:26;;;;;;;1.80;1.50;;;;;;;;;;5032064;28;20918;-77
2021/08/05 15:17:52;;;;;;;1.80;1.50;;;;;;;;;;5032767;28;20496;-77
2021/08/05 15:20:18;;;;;;;1.97;1.70;;;;;;;;;;5015102;28;20837;-76
2021/08/05 15:22:44;;;;;;;1.67;1.47;;;;;;;;;;5031765;28;20425;-80
2021/08/05 15:25:11;;;;;;;1.70;1.30;;;;;;;;;;5032709;28;20494;-76
2021/08/05 15:27:40;;;;;;;2.00;1.50;;;;;;;;;;5032631;28;20421;-76
2021/08/05 15:30:06;;;;;;;1.73;1.30;;;;;;;;;;5014825;28;20492;-75
2021/08/05 15:32:34;;;;;;;1.73;1.10;;;;;;;;;;5033046;28;20416;-75
2021/08/05 15:38:19;;;;;;;1.43;1.33;;;;;;;;;;5011247;28;20487;-77
2021/08/05 15:40:48;;;;;;;1.87;1.77;;;;;;;;;;5012956;28;20813;-76
2021/08/05 15:43:14;;;;;;;3.00;1.60;;;;;;;;;;5012277;28;20373;-75
2021/08/05 15:45:45;;;;;;;1.40;1.30;;;;;;;;;;4982250;28;20528;-76
2021/08/05 15:48:35;;;;;;;2.00;1.40;;;;;;;;;;4993428;28;20391;-75
2021/08/05 15:51:33;;;;;;;1.50;1.40;;;;;;;;;;4992552;28;20422;-74
2021/08/05 15:54:06;;;;;;;1.70;1.43;;;;;;;;;;4977516;28;20770;-75
2021/08/05 15:56:48;;;;;;;1.40;1.30;;;;;;;;;;4993135;28;20423;-74
2021/08/05 15:59:42;;;;;;;1.70;1.50;;;;;;;;;;4991378;28;20873;-75
2021/08/05 16:02:08;;;;;;;1.40;1.23;;;;;;;;;;4993088;28;20414;-75
2021/08/05 16:04:34;;;;;;;2.37;1.23;;;;;;;;;;4992835;28;20422;-75
2021/08/05 16:07:59;;;;;;;1.60;1.50;;;;;;;;;;4992605;28;20497;-75
2021/08/05 16:10:07;;;;;;;1.67;1.57;;;;;;;;;;4977666;28;20477;-75
2021/08/05 16:12:42;;;;;;;1.80;1.30;;;;;;;;;;4996652;28;20493;-77
2021/08/05 16:15:37;;;;;;;;;;;;;;;;;;;;;
2021/08/05 16:18:32;;;;;;;1.43;1.33;;;;;;;;;;4996456;28;20414;-76
2021/08/05 16:21:30;;;;;;;1.63;1.40;;;;;;;;;;4996218;28;20457;-76
2021/08/05 16:29:27;;;;;;;1.97;1.50;;;;;;;;;;5015356;28;20496;-76
2021/08/05 16:38:15;;;;;;;2.33;1.63;;;;;;;;;;3020260;22;20488;-76
2021/08/05 16:41:05;;;;;;;1.80;1.70;;;;;;;;;;5015768;28;20445;-76
2021/08/05 16:47:04;;;;;;;1.50;1.40;;;;;;;;;;5007296;23;20835;-76
2021/08/05 16:50:24;;;;;;;1.40;1.30;;;;;;;;;;4995779;28;20458;-76
2021/08/05 16:56:29;;;;;;;1.60;1.40;;;;;;;;;;4921997;29;21057;-78
2021/08/05 17:20:45;;;;;;;;;;;;;;;;;;;;;
2021/08/05 17:37:38;;;;;;;2.17;1.37;;;;;;;;;;5012237;28;20441;-79
2021/08/05 17:40:27;;;;;;;1.50;1.33;;;;;;;;;;5014277;28;20812;-78
2021/08/05 17:42:59;;;;;;;2.20;1.40;;;;;;;;;;4985904;28;20449;-78
2021/08/05 17:45:52;;;;;;;1.87;1.60;;;;;;;;;;5014470;28;20519;-77
2021/08/05 17:49:01;;;;;;;1.43;1.33;;;;;;;;;;5013910;28;20433;-77
2021/08/05 17:51:34;;;;;;;2.00;1.40;;;;;;;;;;4977252;28;20434;-78
2021/08/05 17:54:14;;;;;;;2.90;1.60;;;;;;;;;;4995931;28;20414;-78
2021/08/05 17:57:00;;;;;;;2.43;1.37;;;;;;;;;;4994385;28;20422;-77
2021/08/05 17:59:29;;;;;;;1.40;1.30;;;;;;;;;;5007161;28;20410;-77
2021/08/05 18:04:59;;;;;;;2.67;1.53;;;;;;;;;;5012978;28;20425;-77
2021/08/05 18:07:47;;;;;;;1.77;1.60;;;;;;;;;;5014721;28;20540;-78
2021/08/05 18:13:53;;;;;;;1.63;1.53;;;;;;;;;;4992380;28;20413;-78
2021/08/05 18:16:25;;;;;;;3.23;1.50;;;;;;;;;;5013101;28;20444;-79
2021/08/05 18:19:06;;;;;;;8.00;2.10;;;;;;;;;;5013186;28;20460;-78
2021/08/05 18:25:30;;;;;;;1.90;1.70;;;;;;;;;;5013697;28;20836;-78
2021/08/05 18:28:01;;;;;;;1.67;1.57;;;;;;;;;;4953515;29;20412;-78
2021/08/05 18:30:30;;;;;;;3.00;1.70;;;;;;;;;;4937204;29;20515;-78